createdAt,value
2018-03-11T00:00:08.261Z,84.20
2018-03-11T00:02:36.587Z,84.14
2018-03-11T00:05:08.236Z,84.34
2018-03-11T00:07:36.541Z,84.32
2018-03-11T00:10:08.098Z,84.22
2018-03-11T00:12:36.389Z,84.41
2018-03-11T00:15:06.379Z,84.44
2018-03-11T00:17:34.678Z,84.41
2018-03-11T00:20:06.249Z,84.50
2018-03-11T00:22:34.533Z,84.50
2018-03-11T00:25:07.295Z,84.60
2018-03-11T00:27:35.601Z,84.71
2018-03-11T00:30:07.362Z,84.71
2018-03-11T00:32:35.657Z,84.79
2018-03-11T00:35:07.185Z,84.67
2018-03-11T00:37:35.530Z,84.49
2018-03-11T00:40:08.082Z,84.73
2018-03-11T00:42:36.357Z,84.40
2018-03-11T00:45:06.502Z,84.15
2018-03-11T00:47:34.778Z,84.11
2018-03-11T00:50:06.807Z,84.06
2018-03-11T00:52:35.134Z,84.34
2018-03-11T00:55:06.670Z,84.78
2018-03-11T00:57:34.971Z,84.67
2018-03-11T01:00:06.429Z,84.81
2018-03-11T01:02:34.749Z,84.75
2018-03-11T01:05:09.896Z,84.76
2018-03-11T01:07:38.199Z,84.89
2018-03-11T01:10:06.502Z,84.82
2018-03-11T01:12:34.835Z,85.00
2018-03-11T01:15:09.843Z,85.17
2018-03-11T01:17:38.174Z,85.53
2018-03-11T01:20:06.538Z,86.00
2018-03-11T01:22:34.760Z,86.53
2018-03-11T01:25:06.690Z,86.35
2018-03-11T01:27:35.125Z,86.64
2018-03-11T01:30:06.727Z,86.68
2018-03-11T01:32:36.278Z,86.53
2018-03-11T01:35:08.248Z,86.47
2018-03-11T01:37:36.544Z,86.45
2018-03-11T01:40:06.413Z,86.72
2018-03-11T01:42:34.749Z,87.27
2018-03-11T01:45:06.250Z,86.88
2018-03-11T01:47:34.534Z,87.10
2018-03-11T01:50:05.935Z,86.71
2018-03-11T01:55:33.321Z,87.45
2018-03-11T01:58:01.610Z,87.63
2018-03-11T02:00:29.916Z,87.33
2018-03-11T02:02:58.194Z,87.51
2018-03-11T02:05:27.440Z,87.50
2018-03-11T02:07:55.969Z,87.28
2018-03-11T02:10:24.261Z,87.22
2018-03-11T02:12:52.537Z,86.98
2018-03-11T02:15:20.856Z,86.76
2018-03-11T02:17:49.137Z,86.76
2018-03-11T02:20:17.421Z,86.76
2018-03-11T02:22:45.721Z,87.95
2018-03-11T02:25:14.139Z,87.54
2018-03-11T02:27:42.421Z,87.29
2018-03-11T02:30:10.738Z,87.28
2018-03-11T02:32:39.061Z,87.90
2018-03-11T02:35:07.369Z,88.77
2018-03-11T02:37:35.652Z,89.23
2018-03-11T02:40:06.734Z,88.52
2018-03-11T02:42:35.057Z,88.86
2018-03-11T02:45:09.089Z,88.24
2018-03-11T02:47:37.423Z,88.06
2018-03-11T02:50:06.721Z,87.96
2018-03-11T02:52:35.016Z,88.58
2018-03-11T02:55:06.389Z,88.02
2018-03-11T02:57:34.699Z,87.74
2018-03-11T03:00:06.698Z,87.76
2018-03-11T03:02:35.628Z,87.94
2018-03-11T03:05:05.621Z,87.70
2018-03-11T03:07:34.205Z,87.93
2018-03-11T03:10:10.055Z,87.98
2018-03-11T03:12:38.386Z,88.48
2018-03-11T03:15:06.662Z,89.28
2018-03-11T03:17:34.962Z,89.15
2018-03-11T03:20:06.770Z,89.13
2018-03-11T03:22:39.547Z,89.16
2018-03-11T03:25:08.040Z,89.16
2018-03-11T03:27:36.335Z,89.25
2018-03-11T03:30:05.984Z,89.45
2018-03-11T03:32:34.933Z,89.92
2018-03-11T03:35:06.733Z,89.82
2018-03-11T03:37:34.934Z,89.81
2018-03-11T03:40:05.773Z,90.26
2018-03-11T03:42:34.126Z,90.01
2018-03-11T03:45:08.254Z,90.32
2018-03-11T03:47:36.550Z,90.40
2018-03-11T03:50:06.144Z,89.66
2018-03-11T03:52:34.421Z,89.58
2018-03-11T03:55:05.753Z,89.50
2018-03-11T03:57:34.047Z,89.44
2018-03-11T04:00:10.233Z,89.87
2018-03-11T04:02:38.546Z,89.72
2018-03-11T04:05:06.830Z,89.64
2018-03-11T04:07:35.137Z,89.68
2018-03-11T04:10:07.248Z,89.88
2018-03-11T04:12:35.545Z,89.71
2018-03-11T04:15:07.409Z,89.73
2018-03-11T04:17:35.653Z,89.72
2018-03-11T04:20:05.801Z,89.77
2018-03-11T04:22:34.087Z,89.99
2018-03-11T04:25:09.209Z,90.08
2018-03-11T04:27:37.541Z,89.48
2018-03-11T04:30:05.827Z,89.51
2018-03-11T04:32:34.118Z,89.20
2018-03-11T04:35:05.701Z,89.17
2018-03-11T04:37:34.034Z,89.69
2018-03-11T04:40:05.502Z,89.33
2018-03-11T04:42:33.793Z,89.32
2018-03-11T04:45:05.711Z,89.09
2018-03-11T04:47:34.005Z,89.21
2018-03-11T04:50:09.174Z,88.52
2018-03-11T04:52:37.487Z,88.76
2018-03-11T04:55:05.772Z,88.47
2018-03-11T04:57:34.068Z,88.61
2018-03-11T05:00:05.950Z,88.45
2018-03-11T05:02:34.284Z,88.53
2018-03-11T05:05:05.772Z,88.49
2018-03-11T05:07:34.073Z,88.64
2018-03-11T05:10:05.509Z,88.78
2018-03-11T05:12:33.841Z,88.74
2018-03-11T05:15:06.039Z,88.66
2018-03-11T05:17:34.626Z,88.66
2018-03-11T05:20:05.731Z,88.38
2018-03-11T05:22:34.002Z,88.75
2018-03-11T05:25:05.496Z,88.74
2018-03-11T05:27:33.790Z,88.39
2018-03-11T05:30:05.105Z,88.45
2018-03-11T05:32:33.386Z,88.32
2018-03-11T05:35:08.153Z,88.60
2018-03-11T05:37:36.430Z,88.54
2018-03-11T05:40:05.942Z,88.68
2018-03-11T05:42:34.219Z,88.51
2018-03-11T05:45:05.792Z,88.58
2018-03-11T05:47:34.068Z,88.57
2018-03-11T05:50:05.854Z,88.36
2018-03-11T05:52:34.181Z,88.06
2018-03-11T05:55:09.228Z,87.97
2018-03-11T05:57:37.513Z,87.99
2018-03-11T06:00:05.845Z,88.04
2018-03-11T06:02:34.674Z,87.74
2018-03-11T06:05:06.210Z,87.66
2018-03-11T06:07:34.803Z,87.36
2018-03-11T06:10:06.503Z,87.24
2018-03-11T06:12:34.862Z,87.11
2018-03-11T06:15:05.698Z,87.37
2018-03-11T06:17:33.997Z,87.64
2018-03-11T06:20:07.230Z,87.56
2018-03-11T06:22:35.536Z,87.09
2018-03-11T06:25:05.957Z,86.98
2018-03-11T06:27:34.258Z,86.72
2018-03-11T06:30:05.831Z,86.85
2018-03-11T06:32:34.785Z,86.80
2018-03-11T06:35:06.037Z,86.70
2018-03-11T06:37:34.434Z,86.44
2018-03-11T06:40:08.426Z,86.04
2018-03-11T06:42:36.721Z,86.00
2018-03-11T06:45:06.026Z,85.81
2018-03-11T06:47:34.325Z,85.42
2018-03-11T06:50:06.439Z,85.19
2018-03-11T06:52:35.347Z,84.98
2018-03-11T06:55:07.088Z,84.71
2018-03-11T06:57:35.987Z,84.19
2018-03-11T07:00:07.688Z,84.29
2018-03-11T07:02:36.004Z,84.20
2018-03-11T07:05:07.303Z,84.10
2018-03-11T07:07:35.578Z,83.64
2018-03-11T07:10:07.738Z,83.82
2018-03-11T07:12:36.352Z,83.33
2018-03-11T07:15:06.078Z,83.59
2018-03-11T07:17:34.361Z,83.38
2018-03-11T07:20:07.363Z,83.33
2018-03-11T07:22:35.665Z,83.18
2018-03-11T07:25:06.894Z,83.26
2018-03-11T07:27:35.180Z,83.07
2018-03-11T07:30:06.499Z,83.08
2018-03-11T07:32:34.806Z,82.79
2018-03-11T07:35:06.863Z,82.74
2018-03-11T07:37:35.148Z,82.55
2018-03-11T07:40:06.491Z,82.92
2018-03-11T07:42:34.778Z,82.19
2018-03-11T07:45:06.830Z,82.41
2018-03-11T07:47:35.159Z,82.24
2018-03-11T07:50:05.824Z,82.01
2018-03-11T07:52:34.127Z,81.94
2018-03-11T07:55:07.405Z,81.80
2018-03-11T07:57:35.706Z,81.55
2018-03-11T08:00:07.166Z,81.21
2018-03-11T08:02:35.455Z,81.51
2018-03-11T08:05:06.769Z,81.14
2018-03-11T08:07:35.763Z,80.72
2018-03-11T08:10:07.497Z,80.34
2018-03-11T08:12:35.768Z,80.13
2018-03-11T08:15:08.292Z,79.67
2018-03-11T08:17:36.628Z,79.40
2018-03-11T08:20:06.440Z,79.08
2018-03-11T08:22:34.792Z,79.05
2018-03-11T08:25:05.892Z,78.77
2018-03-11T08:27:34.313Z,78.61
2018-03-11T08:30:09.513Z,78.96
2018-03-11T08:32:37.894Z,78.78
2018-03-11T08:35:06.181Z,78.55
2018-03-11T08:37:34.469Z,78.86
2018-03-11T08:40:06.077Z,78.36
2018-03-11T08:42:34.649Z,78.02
2018-03-11T08:45:06.885Z,77.88
2018-03-11T08:47:35.548Z,78.10
2018-03-11T08:50:07.185Z,77.76
2018-03-11T08:52:35.466Z,77.01
2018-03-11T08:55:07.337Z,77.38
2018-03-11T08:57:35.613Z,76.45
2018-03-11T09:00:07.172Z,75.88
2018-03-11T09:02:35.432Z,75.39
2018-03-11T09:05:06.838Z,75.02
2018-03-11T09:07:35.275Z,74.81
2018-03-11T09:10:07.265Z,74.40
2018-03-11T09:12:35.539Z,73.69
2018-03-11T09:15:06.881Z,73.10
2018-03-11T09:17:35.157Z,73.56
2018-03-11T09:20:05.906Z,73.42
2018-03-11T09:22:34.187Z,72.38
2018-03-11T09:25:06.216Z,72.44
2018-03-11T09:27:34.496Z,72.09
2018-03-11T09:30:06.915Z,72.23
2018-03-11T09:32:36.183Z,70.68
2018-03-11T09:35:07.934Z,70.75
2018-03-11T09:37:36.247Z,70.07
2018-03-11T09:40:06.945Z,69.00
2018-03-11T09:42:35.240Z,68.55
2018-03-11T09:45:05.960Z,68.73
2018-03-11T09:47:34.263Z,68.79
2018-03-11T09:50:05.702Z,68.03
2018-03-11T09:52:34.042Z,68.05
2018-03-11T09:55:07.431Z,68.24
2018-03-11T09:57:35.733Z,68.34
2018-03-11T10:00:07.067Z,67.81
2018-03-11T10:02:35.416Z,67.71
2018-03-11T10:05:07.542Z,67.60
2018-03-11T10:07:35.845Z,67.38
2018-03-11T10:12:35.098Z,67.48
2018-03-11T10:15:06.936Z,66.92
2018-03-11T10:17:35.206Z,67.05
2018-03-11T10:20:06.647Z,66.53
2018-03-11T10:22:34.931Z,66.61
2018-03-11T10:25:06.229Z,66.43
2018-03-11T10:27:38.829Z,66.48
2018-03-11T10:30:07.158Z,65.97
2018-03-11T10:32:36.258Z,65.72
2018-03-11T10:35:07.573Z,65.66
2018-03-11T10:37:35.824Z,65.41
2018-03-11T10:40:07.134Z,65.54
2018-03-11T10:42:35.411Z,65.75
2018-03-11T10:45:06.992Z,65.59
2018-03-11T10:47:35.222Z,65.57
2018-03-11T10:50:06.614Z,65.37
2018-03-11T10:52:34.989Z,64.51
2018-03-11T10:55:06.253Z,64.53
2018-03-11T10:57:34.532Z,64.40
2018-03-11T11:00:06.253Z,64.35
2018-03-11T11:02:37.062Z,63.88
2018-03-11T11:05:06.084Z,64.28
2018-03-11T11:07:34.365Z,64.51
2018-03-11T11:10:05.828Z,63.97
2018-03-11T11:12:34.092Z,63.77
2018-03-11T11:15:05.406Z,64.12
2018-03-11T11:17:33.959Z,64.24
2018-03-11T11:20:08.969Z,64.08
2018-03-11T11:22:37.258Z,64.36
2018-03-11T11:25:06.297Z,64.44
2018-03-11T11:27:34.586Z,64.71
2018-03-11T11:30:08.651Z,63.73
2018-03-11T11:32:37.166Z,63.96
2018-03-11T11:35:06.218Z,64.23
2018-03-11T11:37:35.091Z,64.00
2018-03-11T11:40:06.645Z,64.05
2018-03-11T11:42:35.229Z,64.00
2018-03-11T11:45:07.350Z,63.84
2018-03-11T11:47:36.701Z,63.74
2018-03-11T11:50:06.738Z,64.43
2018-03-11T11:52:35.024Z,64.04
2018-03-11T11:55:07.088Z,64.06
2018-03-11T11:57:35.363Z,63.67
2018-03-11T12:00:06.047Z,63.21
2018-03-11T12:02:34.310Z,63.60
2018-03-11T12:05:05.762Z,63.82
2018-03-11T12:07:34.049Z,63.29
2018-03-11T12:10:06.103Z,63.58
2018-03-11T12:12:34.529Z,63.67
2018-03-11T12:15:09.573Z,63.77
2018-03-11T12:17:37.848Z,63.95
2018-03-11T12:20:06.140Z,63.93
2018-03-11T12:22:34.566Z,64.21
2018-03-11T12:25:10.104Z,64.29
2018-03-11T12:27:38.366Z,64.25
2018-03-11T12:30:06.656Z,64.15
2018-03-11T12:32:34.928Z,64.25
2018-03-11T12:35:06.969Z,64.30
2018-03-11T12:37:35.241Z,63.61
2018-03-11T12:40:06.080Z,63.41
2018-03-11T12:42:34.363Z,63.51
2018-03-11T12:45:06.326Z,63.41
2018-03-11T12:47:34.629Z,62.93
2018-03-11T12:50:06.089Z,62.99
2018-03-11T12:52:34.881Z,62.40
2018-03-11T12:55:07.178Z,62.15
2018-03-11T12:57:35.732Z,62.56
2018-03-11T13:00:07.474Z,62.59
2018-03-11T13:02:35.782Z,62.42
2018-03-11T13:05:07.009Z,62.06
2018-03-11T13:07:35.294Z,61.45
2018-03-11T13:10:07.308Z,63.17
2018-03-11T13:12:39.604Z,61.91
2018-03-11T13:15:07.855Z,62.56
2018-03-11T13:17:36.131Z,62.62
2018-03-11T13:20:18.132Z,62.88
2018-03-11T13:22:46.415Z,62.64
2018-03-11T13:25:14.715Z,62.28
2018-03-11T13:27:54.776Z,62.34
2018-03-11T13:30:23.068Z,62.52
2018-03-11T13:33:03.024Z,62.77
2018-03-11T13:35:31.293Z,62.54
2018-03-11T13:38:11.268Z,62.39
2018-03-11T13:40:40.476Z,62.24
2018-03-11T13:43:09.495Z,61.54
2018-03-11T13:45:49.688Z,60.75
2018-03-11T13:48:18.482Z,60.44
2018-03-11T13:50:46.757Z,60.19
2018-03-11T13:53:26.882Z,59.44
2018-03-11T13:55:55.192Z,59.61
2018-03-11T13:58:35.184Z,59.97
2018-03-11T14:01:03.542Z,60.08
2018-03-11T14:03:31.817Z,59.66
2018-03-11T14:06:00.133Z,58.53
2018-03-11T14:08:28.406Z,59.65
2018-03-11T14:10:56.678Z,60.08
2018-03-11T14:13:24.960Z,60.52
2018-03-11T14:15:53.469Z,59.90
2018-03-11T14:18:21.972Z,60.40
2018-03-11T14:20:54.344Z,60.88
2018-03-11T14:23:27.000Z,61.62
2018-03-11T14:25:55.298Z,62.76
2018-03-11T14:28:23.571Z,63.13
2018-03-11T14:30:51.860Z,63.32
2018-03-11T14:33:20.168Z,63.62
2018-03-11T14:35:48.453Z,63.73
2018-03-11T14:38:16.729Z,63.71
2018-03-11T14:40:45.216Z,63.21
2018-03-11T14:43:13.456Z,63.51
2018-03-11T14:45:41.750Z,63.32
2018-03-11T14:48:10.987Z,64.16
2018-03-11T14:50:39.313Z,64.56
2018-03-11T14:53:08.380Z,64.59
2018-03-11T14:55:36.641Z,64.61
2018-03-11T14:58:04.971Z,64.40
2018-03-11T15:00:33.393Z,64.27
2018-03-11T15:03:01.683Z,63.92
2018-03-11T15:05:29.951Z,65.86
2018-03-11T15:07:58.409Z,65.25
2018-03-11T15:10:26.681Z,65.97
2018-03-11T15:12:55.288Z,66.29
2018-03-11T15:15:23.617Z,66.53
2018-03-11T15:17:51.921Z,66.78
2018-03-11T15:20:20.197Z,66.28
2018-03-11T15:22:48.514Z,67.13
2018-03-11T15:25:16.818Z,67.17
2018-03-11T15:27:45.129Z,66.90
2018-03-11T15:30:13.449Z,66.09
2018-03-11T15:32:41.701Z,66.87
2018-03-11T15:35:09.999Z,66.70
2018-03-11T15:37:38.537Z,66.71
2018-03-11T15:40:06.876Z,67.19
2018-03-11T15:42:35.101Z,67.22
2018-03-11T15:45:07.100Z,67.35
2018-03-11T15:47:35.377Z,66.95
2018-03-11T15:50:07.476Z,67.42
2018-03-11T15:52:35.742Z,67.32
2018-03-11T15:55:07.764Z,67.57
2018-03-11T15:57:36.060Z,67.59
2018-03-11T16:00:08.074Z,67.51
2018-03-11T16:02:36.353Z,66.88
2018-03-11T16:05:06.257Z,66.83
2018-03-11T16:07:34.540Z,67.02
2018-03-11T16:10:06.096Z,67.83
2018-03-11T16:12:34.501Z,67.55
2018-03-11T16:15:06.195Z,67.04
2018-03-11T16:17:34.528Z,67.07
2018-03-11T16:20:06.646Z,66.98
2018-03-11T16:22:34.937Z,66.47
2018-03-11T16:25:06.963Z,67.04
2018-03-11T16:27:35.260Z,67.10
2018-03-11T16:30:06.980Z,66.68
2018-03-11T16:32:35.298Z,66.40
2018-03-11T16:35:07.377Z,66.03
2018-03-11T16:37:35.778Z,65.97
2018-03-11T16:40:07.924Z,66.56
2018-03-11T16:42:36.543Z,66.73
2018-03-11T16:45:08.270Z,66.62
2018-03-11T16:47:36.999Z,66.93
2018-03-11T16:50:06.673Z,66.84
2018-03-11T16:52:35.022Z,66.54
2018-03-11T16:55:06.360Z,66.11
2018-03-11T16:57:34.639Z,66.12
2018-03-11T17:00:06.417Z,66.37
2018-03-11T17:02:35.097Z,66.39
2018-03-11T17:05:07.179Z,66.47
2018-03-11T17:07:35.770Z,66.62
2018-03-11T17:10:07.716Z,66.68
2018-03-11T17:12:35.987Z,66.29
2018-03-11T17:15:07.721Z,66.88
2018-03-11T17:17:35.995Z,66.64
2018-03-11T17:20:08.050Z,66.71
2018-03-11T17:22:36.416Z,67.60
2018-03-11T17:25:06.928Z,67.49
2018-03-11T17:27:35.201Z,66.81
2018-03-11T17:30:07.065Z,67.96
2018-03-11T17:32:35.352Z,67.96
2018-03-11T17:35:06.641Z,67.95
2018-03-11T17:37:35.169Z,67.85
2018-03-11T17:40:06.478Z,68.18
2018-03-11T17:42:34.808Z,68.35
2018-03-11T17:45:06.579Z,68.77
2018-03-11T17:47:34.958Z,68.69
2018-03-11T17:50:06.322Z,69.03
2018-03-11T17:52:34.598Z,69.36
2018-03-11T17:55:06.157Z,69.36
2018-03-11T17:57:34.425Z,69.82
2018-03-11T18:00:07.773Z,70.17
2018-03-11T18:02:36.291Z,70.85
2018-03-11T18:05:07.609Z,70.58
2018-03-11T18:07:35.914Z,70.74
2018-03-11T18:10:08.707Z,70.65
2018-03-11T18:12:36.988Z,71.35
2018-03-11T18:15:07.356Z,71.15
2018-03-11T18:17:35.660Z,71.10
2018-03-11T18:20:06.945Z,71.30
2018-03-11T18:22:35.238Z,71.30
2018-03-11T18:25:07.370Z,71.54
2018-03-11T18:27:36.248Z,71.78
2018-03-11T18:30:07.917Z,71.80
2018-03-11T18:32:36.194Z,72.19
2018-03-11T18:35:07.540Z,72.56
2018-03-11T18:37:35.821Z,73.09
2018-03-11T18:40:07.157Z,73.04
2018-03-11T18:42:35.495Z,73.61
2018-03-11T18:45:07.613Z,73.46
2018-03-11T18:47:35.882Z,73.48
2018-03-11T18:50:07.197Z,73.76
2018-03-11T18:52:35.483Z,73.85
2018-03-11T18:55:06.970Z,73.97
2018-03-11T18:57:35.267Z,74.03
2018-03-11T19:00:07.113Z,74.12
2018-03-11T19:02:35.386Z,74.25
2018-03-11T19:05:07.514Z,74.28
2018-03-11T19:07:35.802Z,74.61
2018-03-11T19:10:06.459Z,75.03
2018-03-11T19:12:34.750Z,75.45
2018-03-11T19:15:06.490Z,75.42
2018-03-11T19:17:34.984Z,75.53
2018-03-11T19:20:08.207Z,75.69
2018-03-11T19:22:36.508Z,76.13
2018-03-11T19:25:06.404Z,76.66
2018-03-11T19:27:34.975Z,76.30
2018-03-11T19:30:06.322Z,76.28
2018-03-11T19:32:34.608Z,76.62
2018-03-11T19:35:09.686Z,76.69
2018-03-11T19:37:37.966Z,76.88
2018-03-11T19:40:06.731Z,76.98
2018-03-11T19:42:35.035Z,77.07
2018-03-11T19:45:07.154Z,77.93
2018-03-11T19:47:35.453Z,78.23
2018-03-11T19:50:07.877Z,78.45
2018-03-11T19:52:36.193Z,78.54
2018-03-11T19:55:08.079Z,78.17
2018-03-11T19:57:36.355Z,78.54
2018-03-11T20:00:07.763Z,78.44
2018-03-11T20:02:36.051Z,78.51
2018-03-11T20:05:07.465Z,78.63
2018-03-11T20:07:35.735Z,78.64
2018-03-11T20:10:07.807Z,78.63
2018-03-11T20:12:36.102Z,79.08
2018-03-11T20:15:08.119Z,78.96
2018-03-11T20:17:36.396Z,79.03
2018-03-11T20:20:07.787Z,79.50
2018-03-11T20:22:36.178Z,79.87
2018-03-11T20:25:08.802Z,80.19
2018-03-11T20:27:37.215Z,79.91
2018-03-11T20:30:06.525Z,79.81
2018-03-11T20:32:34.798Z,80.59
2018-03-11T20:35:08.048Z,81.10
2018-03-11T20:37:36.451Z,80.82
2018-03-11T20:40:08.572Z,81.14
2018-03-11T20:42:37.121Z,81.10
2018-03-11T20:45:05.531Z,80.84
2018-03-11T20:47:34.663Z,80.60
2018-03-11T20:50:07.035Z,80.45
2018-03-11T20:52:35.302Z,80.73
2018-03-11T20:55:07.200Z,81.02
2018-03-11T20:57:35.483Z,81.08
2018-03-11T21:00:05.645Z,80.71
2018-03-11T21:02:33.962Z,80.33
2018-03-11T21:05:08.897Z,80.11
2018-03-11T21:07:37.190Z,79.97
2018-03-11T21:10:05.700Z,79.91
2018-03-11T21:12:35.832Z,79.86
2018-03-11T21:15:06.879Z,79.93
2018-03-11T21:17:36.522Z,80.11
2018-03-11T21:20:07.452Z,80.21
2018-03-11T21:22:37.233Z,80.53
2018-03-11T21:25:10.970Z,80.69
2018-03-11T21:27:39.352Z,80.89
2018-03-11T21:30:07.609Z,81.30
2018-03-11T21:32:36.082Z,81.22
2018-03-11T21:35:07.405Z,81.20
2018-03-11T21:37:35.666Z,81.59
2018-03-11T21:40:05.574Z,82.07
2018-03-11T21:42:33.841Z,81.58
2018-03-11T21:45:05.745Z,81.40
2018-03-11T21:47:34.430Z,81.39
2018-03-11T21:50:05.590Z,81.34
2018-03-11T21:52:33.865Z,81.44
2018-03-11T21:55:05.517Z,81.36
2018-03-11T21:57:33.792Z,81.78
2018-03-11T22:00:05.286Z,81.72
2018-03-11T22:02:33.571Z,81.80
2018-03-11T22:05:05.903Z,82.01
2018-03-11T22:07:34.164Z,82.29
2018-03-11T22:10:08.243Z,82.24
2018-03-11T22:12:36.515Z,82.48
2018-03-11T22:15:06.039Z,83.12
2018-03-11T22:17:34.311Z,83.20
2018-03-11T22:20:09.385Z,82.98
2018-03-11T22:22:37.653Z,83.22
2018-03-11T22:25:05.934Z,83.44
2018-03-11T22:27:34.189Z,83.46
2018-03-11T22:30:08.969Z,83.62
2018-03-11T22:32:37.245Z,84.06
2018-03-11T22:35:05.643Z,84.41
2018-03-11T22:37:33.905Z,83.96
2018-03-11T22:40:05.812Z,84.55
2018-03-11T22:42:34.077Z,85.10
2018-03-11T22:45:09.258Z,84.70
2018-03-11T22:47:37.631Z,84.80
2018-03-11T22:50:05.905Z,84.67
2018-03-11T22:52:34.194Z,84.73
2018-03-11T22:55:08.594Z,84.98
2018-03-11T22:57:36.897Z,84.43
2018-03-11T23:00:06.268Z,83.99
2018-03-11T23:02:34.561Z,83.65
2018-03-11T23:05:05.913Z,83.58
2018-03-11T23:07:34.233Z,83.87
2018-03-11T23:10:08.181Z,83.50
2018-03-11T23:12:36.754Z,83.49
2018-03-11T23:15:05.926Z,83.63
2018-03-11T23:17:34.249Z,83.74
2018-03-11T23:20:08.261Z,83.57
2018-03-11T23:22:36.551Z,83.59
2018-03-11T23:25:06.157Z,83.67
2018-03-11T23:27:34.442Z,83.77
2018-03-11T23:30:05.838Z,84.13
2018-03-11T23:32:34.115Z,83.79
2018-03-11T23:35:05.492Z,83.37
2018-03-11T23:37:34.052Z,83.31
2018-03-11T23:40:05.862Z,83.00
2018-03-11T23:42:34.792Z,82.72
2018-03-11T23:45:06.673Z,83.02
2018-03-11T23:47:34.941Z,82.88
2018-03-11T23:50:07.088Z,82.91
2018-03-11T23:52:35.572Z,82.38
2018-03-11T23:55:07.582Z,82.15
2018-03-11T23:57:35.841Z,82.09
